Arapahoe, Wyoming
Current Conditions -  °F | °C
As of 10:53 PM on Wednesday 22 Oct 2014 (Local Time) from KRIW Reporting Station
Clear Clear  
Wind Chill:   Ceiling: Unl
Heat Index:   Visibility: 10mi
Dew Point: -7°   Wind: 13mph
Humidity: 37%   Direction: 300°WNW
Pressure: 30.11"   Gusts: NA
Location:  42.96°N, 108.49°W
Report Text: KRIW 230453Z AUTO 30011KT 10SM CLR 07/M07 A3011 RMK AO2 SLP176 T00671072
Loading
Personal Weather Stations






























Interactive Weather Map
Tropical Storm Tracking
New forecast layout! Learn more

10-Day Weather Forecast

Advertisements
Track Severe Weather on mobile